weather.gov     
National Weather Service

Terminal Aerodrome Forecast
NWS Homepage
This page is being discontinued on March 12, 2014.
The same data is available at this site. Please update your bookmarks.
Thank you, and we apologize for the inconvenience.
Please send an email to SR-SRH.Webmaster@noaa.gov with any concerns.


Current Version
Previous Version:    01  02  03  04  05  06  07  08  09  10  11  12  13  14  15  16  17  18  19  20  21  22  23  24  25  
[Printable]
783
FTUS44 KOUN 201134
TAFLAW
TAF
KLAW 201134Z 2012/2112 16009KT P6SM VCSH SCT050 BKN100
     FM201400 16009KT 6SM -SHRA SCT025 OVC050
     FM201800 17010KT P6SM VCSH SCT025 BKN050
     FM202100 17012KT P6SM VCTS SCT040CB BKN100
     FM210100 16009KT P6SM VCSH SCT008 BKN035
     FM210700 14004KT 4SM BR VCSH OVC015=


783
FTUS44 KOUN 201134
TAFLAW
TAF
KLAW 201134Z 2012/2112 16009KT P6SM VCSH SCT050 BKN100
     FM201400 16009KT 6SM -SHRA SCT025 OVC050
     FM201800 17010KT P6SM VCSH SCT025 BKN050
     FM202100 17012KT P6SM VCTS SCT040CB BKN100
     FM210100 16009KT P6SM VCSH SCT008 BKN035
     FM210700 14004KT 4SM BR VCSH OVC015=




U.S. Dept. of Commerce
NOAA National Weather Service
1325 East West Highway
Silver Spring, MD 20910
E-mail: w-nws.webmaster@noaa.gov
Page last modified: May 16, 2007
NATIONAL WEATHER SERVICE: for Safety, for Work, for Fun - FOR LIFE